Time;durP1;ratioP1;P1;durP2;ratioP2;P2;SDS_P1;SDS_P2;PMS_P1;PMS_P2;Temp;Humidity;BMP_temperature;BMP_pressure;BME280_temperature;BME280_humidity;BME280_pressure;Samples;Min_cycle;Max_cycle;Signal;HPM_P1;HPM_P2
2019/09/30 00:00:26;;;;;;;8.5;1.8;;;;;;;;;;;;;
2019/09/30 00:02:47;;;;;;;7.2;1.8;;;;;;;;;;;;;
2019/09/30 00:05:12;;;;;;;6.9;1.7;;;;;;;;;;;;;
2019/09/30 00:07:37;;;;;;;6.7;1.9;;;;;;;;;;;;;
2019/09/30 00:10:02;;;;;;;8.3;1.8;;;;;;;;;;;;;
2019/09/30 00:12:27;;;;;;;7.6;1.7;;;;;;;;;;;;;
2019/09/30 00:14:52;;;;;;;6.1;1.6;;;;;;;;;;;;;
2019/09/30 00:17:18;;;;;;;8.2;1.7;;;;;;;;;;;;;
2019/09/30 00:19:43;;;;;;;9.1;1.7;;;;;;;;;;;;;
2019/09/30 00:22:08;;;;;;;7.9;1.6;;;;;;;;;;;;;
2019/09/30 00:24:33;;;;;;;4.6;1.7;;;;;;;;;;;;;
2019/09/30 00:26:58;;;;;;;7.3;1.7;;;;;;;;;;;;;
2019/09/30 00:29:23;;;;;;;10;1.7;;;;;;;;;;;;;
2019/09/30 00:31:48;;;;;;;7.1;1.6;;;;;;;;;;;;;
2019/09/30 00:34:13;;;;;;;8.2;1.7;;;;;;;;;;;;;
2019/09/30 00:36:38;;;;;;;6.9;1.6;;;;;;;;;;;;;
2019/09/30 00:39:04;;;;;;;7.7;1.4;;;;;;;;;;;;;
2019/09/30 00:41:28;;;;;;;4.1;1.3;;;;;;;;;;;;;
2019/09/30 00:43:54;;;;;;;6.2;1.5;;;;;;;;;;;;;
2019/09/30 00:46:19;;;;;;;4.7;1.4;;;;;;;;;;;;;
2019/09/30 00:48:44;;;;;;;5.8;1.4;;;;;;;;;;;;;
2019/09/30 00:51:09;;;;;;;5.9;1.3;;;;;;;;;;;;;
2019/09/30 00:53:34;;;;;;;6.6;1.7;;;;;;;;;;;;;
2019/09/30 00:55:59;;;;;;;7.4;1.5;;;;;;;;;;;;;
2019/09/30 00:58:24;;;;;;;9.8;1.5;;;;;;;;;;;;;
2019/09/30 01:00:49;;;;;;;4.8;1.1;;;;;;;;;;;;;
2019/09/30 01:03:14;;;;;;;7.2;1.5;;;;;;;;;;;;;
2019/09/30 01:05:40;;;;;;;9.5;1.4;;;;;;;;;;;;;
2019/09/30 01:08:05;;;;;;;4.4;1.6;;;;;;;;;;;;;
2019/09/30 01:10:30;;;;;;;5.3;1.2;;;;;;;;;;;;;
2019/09/30 01:12:55;;;;;;;5.4;1.4;;;;;;;;;;;;;
2019/09/30 01:15:20;;;;;;;7.8;1.4;;;;;;;;;;;;;
2019/09/30 01:17:45;;;;;;;7.1;1.2;;;;;;;;;;;;;
2019/09/30 01:20:10;;;;;;;5.5;1.1;;;;;;;;;;;;;
2019/09/30 01:22:43;;;;;;;7.2;0.9;;;;;;;;;;;;;
2019/09/30 01:25:00;;;;;;;7;1.2;;;;;;;;;;;;;
2019/09/30 01:27:26;;;;;;;4.7;1.2;;;;;;;;;;;;;
2019/09/30 01:29:51;;;;;;;3.7;0.9;;;;;;;;;;;;;
2019/09/30 01:32:16;;;;;;;4.2;0.9;;;;;;;;;;;;;
2019/09/30 01:34:41;;;;;;;5.5;0.9;;;;;;;;;;;;;
2019/09/30 01:37:06;;;;;;;6.5;1;;;;;;;;;;;;;
2019/09/30 01:39:31;;;;;;;6;1;;;;;;;;;;;;;
2019/09/30 01:41:56;;;;;;;5.5;0.9;;;;;;;;;;;;;
2019/09/30 01:44:21;;;;;;;5.4;1;;;;;;;;;;;;;
2019/09/30 01:46:46;;;;;;;3.7;0.9;;;;;;;;;;;;;
2019/09/30 01:49:11;;;;;;;5.2;1;;;;;;;;;;;;;
2019/09/30 01:51:37;;;;;;;5;1.2;;;;;;;;;;;;;
2019/09/30 01:54:02;;;;;;;5.9;1;;;;;;;;;;;;;
2019/09/30 01:56:27;;;;;;;5;1;;;;;;;;;;;;;
2019/09/30 01:58:52;;;;;;;4;0.8;;;;;;;;;;;;;
2019/09/30 02:01:27;;;;;;;4.5;0.8;;;;;;;;;;;;;
2019/09/30 02:03:42;;;;;;;4;0.9;;;;;;;;;;;;;
2019/09/30 02:06:07;;;;;;;4;0.7;;;;;;;;;;;;;
2019/09/30 02:08:32;;;;;;;3.9;0.8;;;;;;;;;;;;;
2019/09/30 02:10:57;;;;;;;5.2;0.9;;;;;;;;;;;;;
2019/09/30 02:13:22;;;;;;;3.2;0.8;;;;;;;;;;;;;
2019/09/30 02:15:47;;;;;;;3;0.7;;;;;;;;;;;;;
2019/09/30 02:18:12;;;;;;;2.4;0.7;;;;;;;;;;;;;
2019/09/30 02:20:37;;;;;;;3;0.7;;;;;;;;;;;;;
2019/09/30 02:23:03;;;;;;;2.6;0.6;;;;;;;;;;;;;
2019/09/30 02:25:28;;;;;;;2.4;0.7;;;;;;;;;;;;;
2019/09/30 02:27:53;;;;;;;3.1;0.8;;;;;;;;;;;;;
2019/09/30 02:30:18;;;;;;;1.9;0.7;;;;;;;;;;;;;
2019/09/30 02:32:43;;;;;;;3.6;0.7;;;;;;;;;;;;;
2019/09/30 02:35:08;;;;;;;2.5;0.7;;;;;;;;;;;;;
2019/09/30 02:37:33;;;;;;;2.7;0.7;;;;;;;;;;;;;
2019/09/30 02:39:58;;;;;;;4.7;0.8;;;;;;;;;;;;;
2019/09/30 02:42:23;;;;;;;2.1;0.5;;;;;;;;;;;;;
2019/09/30 02:44:49;;;;;;;2.5;0.7;;;;;;;;;;;;;
2019/09/30 02:47:14;;;;;;;5.5;0.8;;;;;;;;;;;;;
2019/09/30 02:49:39;;;;;;;3.1;0.7;;;;;;;;;;;;;
2019/09/30 02:52:04;;;;;;;1.6;0.6;;;;;;;;;;;;;
2019/09/30 02:54:29;;;;;;;2.6;0.6;;;;;;;;;;;;;
2019/09/30 02:56:54;;;;;;;2.2;0.6;;;;;;;;;;;;;
2019/09/30 02:59:19;;;;;;;1.9;0.6;;;;;;;;;;;;;
2019/09/30 03:01:44;;;;;;;1.3;0.4;;;;;;;;;;;;;
2019/09/30 03:04:09;;;;;;;2.2;0.5;;;;;;;;;;;;;
2019/09/30 03:06:35;;;;;;;1.8;0.6;;;;;;;;;;;;;
2019/09/30 03:09:00;;;;;;;1.3;0.5;;;;;;;;;;;;;
2019/09/30 03:11:25;;;;;;;2.2;0.5;;;;;;;;;;;;;
2019/09/30 03:13:50;;;;;;;3.9;0.5;;;;;;;;;;;;;
2019/09/30 03:16:15;;;;;;;1.7;0.5;;;;;;;;;;;;;
2019/09/30 03:18:40;;;;;;;3.7;0.6;;;;;;;;;;;;;
2019/09/30 03:21:05;;;;;;;1.6;0.5;;;;;;;;;;;;;
2019/09/30 03:23:30;;;;;;;1.7;0.4;;;;;;;;;;;;;
2019/09/30 03:25:55;;;;;;;1.8;0.4;;;;;;;;;;;;;
2019/09/30 03:28:20;;;;;;;1.8;0.5;;;;;;;;;;;;;
2019/09/30 03:30:45;;;;;;;1.7;0.4;;;;;;;;;;;;;
2019/09/30 03:33:10;;;;;;;1.4;0.3;;;;;;;;;;;;;
2019/09/30 03:35:35;;;;;;;0.8;0.3;;;;;;;;;;;;;
2019/09/30 03:38:00;;;;;;;1;0.4;;;;;;;;;;;;;
2019/09/30 03:40:26;;;;;;;1.2;0.3;;;;;;;;;;;;;
2019/09/30 03:42:51;;;;;;;1.9;0.4;;;;;;;;;;;;;
2019/09/30 03:45:16;;;;;;;1;0.4;;;;;;;;;;;;;
2019/09/30 03:47:41;;;;;;;0.9;0.4;;;;;;;;;;;;;
2019/09/30 03:50:06;;;;;;;1.1;0.4;;;;;;;;;;;;;
2019/09/30 03:52:31;;;;;;;2.1;0.4;;;;;;;;;;;;;
2019/09/30 03:54:57;;;;;;;1;0.4;;;;;;;;;;;;;
2019/09/30 03:57:22;;;;;;;1.9;0.5;;;;;;;;;;;;;
2019/09/30 03:59:47;;;;;;;1.4;0.3;;;;;;;;;;;;;
2019/09/30 04:02:29;;;;;;;1.7;0.4;;;;;;;16.44;82.4873;952.4083;;;;
2019/09/30 04:04:53;;;;;;;0.7;0.3;;;;;;;16.58;81.82324;952.3511;;;;
2019/09/30 04:07:19;;;;;;;3.3;0.4;;;;;;;16.56;81.90234;952.3489;;;;
2019/09/30 04:09:44;;;;;;;1.4;0.4;;;;;;;16.46;82.37207;952.4149;;;;
2019/09/30 04:12:09;;;;;;;2;0.5;;;;;;;16.42;82.3418;952.5378;;;;
2019/09/30 04:14:34;;;;;;;1.7;0.3;;;;;;;16.47;82.30566;952.5698;;;;
2019/09/30 04:16:59;;;;;;;1.5;0.4;;;;;;;16.41;82.44531;952.5806;;;;
2019/09/30 04:19:24;;;;;;;2.2;0.5;;;;;;;16.51;81.71875;952.5908;;;;
2019/09/30 04:21:49;;;;;;;1.8;0.4;;;;;;;16.49;81.5498;952.8215;;;;
2019/09/30 04:24:14;;;;;;;1.5;0.5;;;;;;;16.55;81.2002;952.7844;;;;
2019/09/30 04:26:39;;;;;;;1;0.4;;;;;;;16.5;80.98047;952.6986;;;;
2019/09/30 04:29:04;;;;;;;1.2;0.5;;;;;;;16.47;80.97363;952.7222;;;;
2019/09/30 04:31:29;;;;;;;1.6;0.4;;;;;;;16.45;81.0752;952.7898;;;;
2019/09/30 04:33:54;;;;;;;1.3;0.5;;;;;;;16.44;81.19238;952.8903;;;;
2019/09/30 04:36:20;;;;;;;1.3;0.5;;;;;;;16.41;81.21875;952.918;;;;
2019/09/30 04:38:45;;;;;;;1.5;0.5;;;;;;;16.35;81.62891;952.914;;;;
2019/09/30 04:41:10;;;;;;;2.1;0.5;;;;;;;16.42;81.50195;952.9506;;;;
2019/09/30 04:43:35;;;;;;;1;0.4;;;;;;;16.39;81.35547;953.0481;;;;
2019/09/30 04:46:00;;;;;;;2.2;0.5;;;;;;;16.36;80.72168;953.0386;;;;
2019/09/30 04:48:25;;;;;;;2.3;0.4;;;;;;;16.23;81.2334;953.14;;;;
2019/09/30 04:50:50;;;;;;;2;0.5;;;;;;;16.25;80.61914;953.1348;;;;
2019/09/30 04:53:16;;;;;;;1.3;0.2;;;;;;;16.2;80.51563;953.2621;;;;
2019/09/30 04:55:41;;;;;;;1.1;0.5;;;;;;;16.18;80.32813;953.3469;;;;
2019/09/30 04:58:06;;;;;;;1.5;0.4;;;;;;;16.15;80.63574;953.3597;;;;
2019/09/30 05:00:32;;;;;;;1.1;0.3;;;;;;;16.12;79.56836;953.3362;;;;
2019/09/30 05:02:57;;;;;;;0.9;0.5;;;;;;;16.13;79.60645;953.3897;;;;
2019/09/30 05:05:22;;;;;;;1;0.3;;;;;;;16.18;79.27637;953.4678;;;;
2019/09/30 05:07:48;;;;;;;2.1;0.5;;;;;;;16.05;79.27734;953.4169;;;;
2019/09/30 05:10:13;;;;;;;0.6;0.4;;;;;;;16.09;78.67773;953.5248;;;;
2019/09/30 05:12:38;;;;;;;1.6;0.5;;;;;;;16.04;78.49316;953.5248;;;;
2019/09/30 05:15:03;;;;;;;3.2;0.4;;;;;;;15.98;78.74023;953.5437;;;;
2019/09/30 05:17:28;;;;;;;0.5;0.3;;;;;;;15.93;79.33594;953.5647;;;;
2019/09/30 05:19:53;;;;;;;1.4;0.4;;;;;;;15.87;78.7793;953.5678;;;;
2019/09/30 05:22:18;;;;;;;0.6;0.3;;;;;;;15.83;79.06348;953.6142;;;;
2019/09/30 05:24:44;;;;;;;2;0.4;;;;;;;15.89;78.81738;953.6228;;;;
2019/09/30 05:27:09;;;;;;;1.7;0.3;;;;;;;15.82;79.15332;953.6307;;;;
2019/09/30 05:29:34;;;;;;;0.7;0.3;;;;;;;15.73;79.40527;953.662;;;;
2019/09/30 05:31:59;;;;;;;0.6;0.3;;;;;;;15.73;79.4873;953.7015;;;;
2019/09/30 05:34:24;;;;;;;1.8;0.4;;;;;;;15.72;79.36914;953.7411;;;;
2019/09/30 05:36:49;;;;;;;1;0.5;;;;;;;15.72;79.18262;953.7715;;;;
2019/09/30 05:39:15;;;;;;;2.9;0.4;;;;;;;15.7;79.43359;953.7619;;;;
2019/09/30 05:41:40;;;;;;;1.7;0.5;;;;;;;15.68;78.9668;953.8056;;;;
2019/09/30 05:44:05;;;;;;;1.7;0.4;;;;;;;15.64;79.37793;953.8293;;;;
2019/09/30 05:46:31;;;;;;;1.5;0.5;;;;;;;15.62;79.09277;953.8808;;;;
2019/09/30 05:48:56;;;;;;;1.8;0.4;;;;;;;15.6;78.88184;953.9146;;;;
2019/09/30 05:51:21;;;;;;;2.5;0.5;;;;;;;15.61;78.90527;953.9653;;;;
2019/09/30 05:53:46;;;;;;;2.4;0.4;;;;;;;15.61;79.49902;953.9686;;;;
2019/09/30 05:56:11;;;;;;;1.3;0.4;;;;;;;15.59;79.03027;954.0348;;;;
2019/09/30 05:58:36;;;;;;;1.2;0.5;;;;;;;15.59;78.80859;954.1332;;;;
2019/09/30 06:01:02;;;;;;;2.2;0.5;;;;;;;15.66;78.63574;954.1728;;;;
2019/09/30 06:03:27;;;;;;;1;0.4;;;;;;;15.64;78.72559;954.1744;;;;
2019/09/30 06:05:52;;;;;;;1.4;0.4;;;;;;;15.62;78.39648;954.2339;;;;
2019/09/30 06:08:17;;;;;;;2.3;0.4;;;;;;;15.6;78.66113;954.3072;;;;
2019/09/30 06:10:43;;;;;;;1.3;0.4;;;;;;;15.68;78.12598;954.3792;;;;
2019/09/30 06:13:08;;;;;;;1.8;0.5;;;;;;;15.76;77.54688;954.37;;;;
2019/09/30 06:15:33;;;;;;;1;0.4;;;;;;;15.79;76.93555;954.4641;;;;
2019/09/30 06:18:00;;;;;;;2.4;0.5;;;;;;;15.75;77.12695;954.5656;;;;
2019/09/30 06:20:23;;;;;;;1.6;0.5;;;;;;;15.71;77.30566;954.5054;;;;
2019/09/30 06:22:49;;;;;;;0.8;0.5;;;;;;;15.67;77.50781;954.5833;;;;
2019/09/30 06:25:14;;;;;;;1.2;0.6;;;;;;;15.76;76.89453;954.577;;;;
2019/09/30 06:27:39;;;;;;;1.6;0.5;;;;;;;15.72;77.15625;954.7131;;;;
2019/09/30 06:30:04;;;;;;;1.6;0.6;;;;;;;15.66;76.98242;954.6739;;;;
2019/09/30 06:32:29;;;;;;;2.5;0.6;;;;;;;15.67;76.91406;954.7336;;;;
2019/09/30 06:34:54;;;;;;;1.1;0.4;;;;;;;15.63;76.63965;954.8031;;;;
2019/09/30 06:37:20;;;;;;;1.1;0.4;;;;;;;15.68;75.71777;954.8515;;;;
2019/09/30 06:39:45;;;;;;;2.7;0.6;;;;;;;15.62;75.84473;954.8575;;;;
2019/09/30 06:42:10;;;;;;;2.8;0.6;;;;;;;15.59;76.56152;954.9562;;;;
2019/09/30 06:44:36;;;;;;;2.3;0.8;;;;;;;15.6;75.85352;954.9586;;;;
2019/09/30 06:47:01;;;;;;;2;1.1;;;;;;;15.55;76.11328;955.0064;;;;
2019/09/30 06:49:26;;;;;;;2.1;0.6;;;;;;;15.64;75.25586;955.0488;;;;
2019/09/30 06:51:51;;;;;;;2.8;0.7;;;;;;;15.57;74.26563;955.128;;;;
2019/09/30 06:54:17;;;;;;;2.6;1.7;;;;;;;15.67;73.66504;955.1716;;;;
2019/09/30 06:56:42;;;;;;;1.7;0.6;;;;;;;15.51;73.94141;955.1992;;;;
2019/09/30 06:59:07;;;;;;;1.7;0.9;;;;;;;15.48;74.53125;955.269;;;;
2019/09/30 07:01:32;;;;;;;2.3;0.7;;;;;;;15.55;74.05273;955.3021;;;;
2019/09/30 07:03:57;;;;;;;3;1.3;;;;;;;15.58;73.59277;955.265;;;;
2019/09/30 07:06:23;;;;;;;2.4;1.4;;;;;;;15.6;72.37207;955.4539;;;;
2019/09/30 07:08:48;;;;;;;8.3;5.9;;;;;;;15.57;71.65723;955.4417;;;;
2019/09/30 07:11:13;;;;;;;3.2;1.2;;;;;;;15.52;70.35645;955.4256;;;;
2019/09/30 07:13:38;;;;;;;2.3;0.9;;;;;;;15.48;70.41016;955.4982;;;;
2019/09/30 07:16:03;;;;;;;5;1.8;;;;;;;15.43;69.10938;955.5264;;;;
2019/09/30 07:18:28;;;;;;;3.6;1.4;;;;;;;15.47;69.37012;955.5823;;;;
2019/09/30 07:20:54;;;;;;;3.6;1.3;;;;;;;15.47;68.75293;955.6414;;;;
2019/09/30 07:23:19;;;;;;;3.2;0.8;;;;;;;15.52;68.35547;955.5826;;;;
2019/09/30 07:25:44;;;;;;;2.8;0.8;;;;;;;15.55;68.05664;955.7145;;;;
2019/09/30 07:28:10;;;;;;;5.2;1;;;;;;;15.58;67.95801;955.8292;;;;
2019/09/30 07:30:35;;;;;;;5.2;1.4;;;;;;;15.57;68.32813;955.8779;;;;
2019/09/30 07:33:00;;;;;;;2.9;0.8;;;;;;;15.56;67.3252;955.9414;;;;
2019/09/30 07:35:25;;;;;;;3;0.9;;;;;;;15.49;67.04785;955.9341;;;;
2019/09/30 07:37:50;;;;;;;4.5;1.1;;;;;;;15.63;66.96387;955.9515;;;;
2019/09/30 07:42:40;;;;;;;3.3;1;;;;;;;15.52;66.56152;956.1886;;;;
2019/09/30 07:45:05;;;;;;;4.8;1.7;;;;;;;15.51;65.875;956.1691;;;;
2019/09/30 07:47:30;;;;;;;3.8;1.5;;;;;;;15.45;66.14453;956.2664;;;;
2019/09/30 07:49:56;;;;;;;2.5;0.9;;;;;;;15.41;65.32422;956.3478;;;;
2019/09/30 07:52:21;;;;;;;3.9;1;;;;;;;15.45;65.13184;956.438;;;;
2019/09/30 07:54:46;;;;;;;2.3;1;;;;;;;15.43;64.84961;956.4289;;;;
2019/09/30 07:57:11;;;;;;;2.2;0.8;;;;;;;15.43;63.3252;956.5455;;;;
2019/09/30 07:59:36;;;;;;;3.8;0.7;;;;;;;15.41;62.82129;956.5745;;;;
2019/09/30 08:02:02;;;;;;;3.4;0.9;;;;;;;15.45;63.4209;956.5956;;;;
2019/09/30 08:04:27;;;;;;;3;0.8;;;;;;;15.51;63.15039;956.7136;;;;
2019/09/30 08:06:52;;;;;;;4.1;0.8;;;;;;;15.49;62.62305;956.6898;;;;
2019/09/30 08:09:17;;;;;;;3.1;0.9;;;;;;;15.59;63.61523;956.7208;;;;
2019/09/30 08:11:42;;;;;;;2.5;0.7;;;;;;;15.77;61.4873;956.8441;;;;
2019/09/30 08:14:07;;;;;;;3.2;0.7;;;;;;;15.76;60.99609;956.775;;;;
2019/09/30 08:16:33;;;;;;;2.6;0.9;;;;;;;15.71;60.46582;956.8781;;;;
2019/09/30 08:18:58;;;;;;;1.9;0.7;;;;;;;15.87;59.64941;956.8886;;;;
2019/09/30 08:21:23;;;;;;;3.8;0.7;;;;;;;15.81;59.66406;957.0179;;;;
2019/09/30 08:23:48;;;;;;;3.4;0.8;;;;;;;15.78;59.34473;957.0708;;;;
2019/09/30 08:26:13;;;;;;;3.2;0.9;;;;;;;15.79;59.49805;956.9785;;;;
2019/09/30 08:28:38;;;;;;;2.2;0.6;;;;;;;15.86;59.36719;956.9291;;;;
2019/09/30 08:31:04;;;;;;;2.2;0.8;;;;;;;15.9;58.87207;956.9995;;;;
2019/09/30 08:33:29;;;;;;;3.8;0.6;;;;;;;15.89;58.87109;957.0554;;;;
2019/09/30 08:35:54;;;;;;;4.6;1;;;;;;;15.94;59.35645;957.0823;;;;
2019/09/30 08:38:20;;;;;;;3.6;0.9;;;;;;;16.03;58.73926;957.1202;;;;
2019/09/30 08:40:45;;;;;;;3.1;0.7;;;;;;;15.97;58.12402;957.1155;;;;
2019/09/30 08:43:10;;;;;;;4.7;0.8;;;;;;;16;57.98926;957.0364;;;;
2019/09/30 08:45:35;;;;;;;3.5;0.9;;;;;;;16.07;58.35938;957.0552;;;;
2019/09/30 08:48:01;;;;;;;3.4;0.8;;;;;;;16.22;57.43457;957.1166;;;;
2019/09/30 08:50:26;;;;;;;2.1;0.8;;;;;;;16.17;57.46289;957.2213;;;;
2019/09/30 08:52:51;;;;;;;2.7;0.9;;;;;;;16.15;57.99707;957.2131;;;;
2019/09/30 08:55:16;;;;;;;2.8;0.8;;;;;;;16.24;57.66992;957.295;;;;
2019/09/30 08:57:42;;;;;;;2.9;0.7;;;;;;;16.29;57.32715;957.3816;;;;
2019/09/30 09:00:07;;;;;;;4.8;0.9;;;;;;;16.31;57.5166;957.3627;;;;
2019/09/30 09:02:32;;;;;;;2.7;0.8;;;;;;;16.34;57.28711;957.4102;;;;
2019/09/30 09:04:57;;;;;;;3.7;0.6;;;;;;;16.37;57.58203;957.3533;;;;
2019/09/30 09:07:22;;;;;;;2.4;0.8;;;;;;;16.38;56.74414;957.3817;;;;
2019/09/30 09:09:57;;;;;;;3.1;0.9;;;;;;;16.28;56.99902;957.5676;;;;
2019/09/30 09:12:41;;;;;;;3.2;0.9;;;;;;;16.31;56.73633;957.5213;;;;
2019/09/30 09:15:51;;;;;;;3;1;;;;;;;16.36;57.40625;957.5029;;;;
2019/09/30 09:19:07;;;;;;;4.1;0.7;;;;;;;16.35;57.08984;957.5449;;;;
2019/09/30 09:22:30;;;;;;;2.7;0.9;;;;;;;16.48;56.58203;957.6042;;;;
2019/09/30 09:25:41;;;;;;;2.8;0.8;;;;;;;16.53;55.50293;957.6424;;;;
2019/09/30 09:28:51;;;;;;;3;0.7;;;;;;;16.51;55.8623;957.7283;;;;
2019/09/30 09:31:46;;;;;;;4;0.8;;;;;;;16.71;55.64355;957.8739;;;;
2019/09/30 09:34:39;;;;;;;2.1;0.7;;;;;;;16.72;54.94434;957.8163;;;;
2019/09/30 09:37:04;;;;;;;2.8;0.7;;;;;;;16.82;55.43555;957.8;;;;
2019/09/30 09:39:29;;;;;;;2.4;0.8;;;;;;;16.96;54.74023;957.8029;;;;
2019/09/30 09:41:54;;;;;;;2.5;0.9;;;;;;;17.08;54.4043;957.8571;;;;
2019/09/30 09:44:19;;;;;;;3.5;0.8;;;;;;;17.05;54.20215;957.9536;;;;
2019/09/30 09:46:44;;;;;;;3.3;0.9;;;;;;;16.93;53.59277;957.8429;;;;
2019/09/30 09:49:09;;;;;;;2.2;0.8;;;;;;;17;53.44824;957.806;;;;
2019/09/30 09:52:07;;;;;;;3;0.8;;;;;;;16.88;53.5752;957.8564;;;;
2019/09/30 09:55:18;;;;;;;3.8;0.9;;;;;;;17.07;53.97168;957.9427;;;;
2019/09/30 09:58:29;;;;;;;2.8;0.7;;;;;;;17.02;54.40918;958.0198;;;;
2019/09/30 10:01:40;;;;;;;3.4;1;;;;;;;16.71;54.16113;958.0319;;;;
2019/09/30 10:05:06;;;;;;;3.1;0.7;;;;;;;16.78;54.33203;958.1114;;;;
2019/09/30 10:07:40;;;;;;;3.1;0.9;;;;;;;16.83;54.01074;958.0428;;;;
2019/09/30 10:10:14;;;;;;;1.8;0.8;;;;;;;16.92;53.92969;958.1155;;;;
2019/09/30 10:13:08;;;;;;;4.4;2.1;;;;;;;17.07;53.42285;958.1767;;;;
2019/09/30 10:15:42;;;;;;;4.1;1.6;;;;;;;17.11;53.95313;958.1334;;;;
2019/09/30 10:18:56;;;;;;;3.8;1.5;;;;;;;17.05;53.45508;958.065;;;;
2019/09/30 10:21:38;;;;;;;3.8;1.8;;;;;;;16.99;54.16016;958.1314;;;;
2019/09/30 10:24:03;;;;;;;4.7;1.5;;;;;;;17.09;53.78809;958.1962;;;;
2019/09/30 10:26:28;;;;;;;3.7;1.4;;;;;;;17.08;53.69238;958.2903;;;;
2019/09/30 10:28:57;;;;;;;3.4;1.1;;;;;;;17.16;53.05957;958.3134;;;;
2019/09/30 10:31:54;;;;;;;2.2;0.9;;;;;;;17.34;53.24414;958.2509;;;;
2019/09/30 10:36:45;;;;;;;4.7;1.1;;;;;;;17.26;53.7373;958.3597;;;;
2019/09/30 10:39:11;;;;;;;2.6;0.9;;;;;;;17.42;53.76953;958.3292;;;;
2019/09/30 10:41:36;;;;;;;2.9;0.8;;;;;;;17.71;52.45801;958.4564;;;;
2019/09/30 10:44:01;;;;;;;2.2;0.7;;;;;;;17.6;52.58594;958.3653;;;;
2019/09/30 10:46:26;;;;;;;2.8;0.9;;;;;;;17.52;52.38965;958.3777;;;;
2019/09/30 10:48:51;;;;;;;3.2;1.1;;;;;;;17.6;52.36426;958.3603;;;;
2019/09/30 10:51:16;;;;;;;2.7;1;;;;;;;17.56;52.30176;958.3378;;;;
2019/09/30 10:53:41;;;;;;;2.6;1;;;;;;;17.55;52.18262;958.3402;;;;
2019/09/30 10:56:06;;;;;;;3.4;1;;;;;;;17.57;51.66992;958.3376;;;;
2019/09/30 10:58:32;;;;;;;2.2;0.8;;;;;;;17.61;50.85645;958.4352;;;;
2019/09/30 11:00:57;;;;;;;3.1;1.2;;;;;;;17.53;51.58496;958.3933;;;;
2019/09/30 11:03:22;;;;;;;3.3;0.9;;;;;;;17.42;51.82813;958.3275;;;;
2019/09/30 11:05:48;;;;;;;2.8;0.9;;;;;;;17.32;52.50488;958.4695;;;;
2019/09/30 11:08:13;;;;;;;2.6;0.9;;;;;;;17.36;51.71582;958.5053;;;;
2019/09/30 11:10:38;;;;;;;3.9;0.8;;;;;;;17.39;51.88379;958.3427;;;;
2019/09/30 11:13:03;;;;;;;3.3;1.1;;;;;;;17.53;51.87695;958.301;;;;
2019/09/30 11:15:28;;;;;;;2.5;1.1;;;;;;;17.42;51.76953;958.4166;;;;
2019/09/30 11:17:53;;;;;;;2.9;1.2;;;;;;;17.42;51.44141;958.4775;;;;
2019/09/30 11:20:18;;;;;;;3.3;1.3;;;;;;;17.45;51.45703;958.4492;;;;
2019/09/30 11:22:43;;;;;;;3.4;1.4;;;;;;;17.45;52.00684;958.5044;;;;
2019/09/30 11:25:08;;;;;;;4.3;1;;;;;;;17.48;51.63574;958.6064;;;;
2019/09/30 11:27:33;;;;;;;3.7;1.4;;;;;;;17.35;51.53906;958.6247;;;;
2019/09/30 11:29:59;;;;;;;2.9;0.9;;;;;;;17.48;51.27344;958.7325;;;;
2019/09/30 11:32:24;;;;;;;2.9;1;;;;;;;17.39;51.2041;958.7209;;;;
2019/09/30 11:34:49;;;;;;;1.9;1;;;;;;;17.6;51.98926;958.6603;;;;
2019/09/30 11:37:14;;;;;;;2.3;0.8;;;;;;;17.57;51.57617;958.6163;;;;
2019/09/30 11:39:40;;;;;;;3.4;1.1;;;;;;;17.87;50.30176;958.5457;;;;
2019/09/30 11:42:05;;;;;;;2.9;0.8;;;;;;;17.82;50.17773;958.5792;;;;
2019/09/30 11:44:30;;;;;;;2.4;0.8;;;;;;;17.64;50.67188;958.5347;;;;
2019/09/30 11:46:55;;;;;;;3.2;1.1;;;;;;;17.57;51.51758;958.58;;;;
2019/09/30 11:49:20;;;;;;;3.3;0.9;;;;;;;17.52;51.16113;958.5101;;;;
2019/09/30 11:51:45;;;;;;;1.9;0.6;;;;;;;17.54;51.37402;958.5506;;;;
2019/09/30 11:54:11;;;;;;;3.1;0.8;;;;;;;17.42;51.51172;958.6127;;;;
2019/09/30 11:56:36;;;;;;;2.3;0.7;;;;;;;17.34;52.21582;958.6478;;;;
2019/09/30 11:59:01;;;;;;;1.9;0.8;;;;;;;17.31;52.18848;958.6894;;;;
2019/09/30 12:01:27;;;;;;;3.4;0.8;;;;;;;17.38;52.09277;958.6831;;;;
2019/09/30 12:03:52;;;;;;;2.8;0.8;;;;;;;17.37;52.41797;958.6675;;;;
2019/09/30 12:06:17;;;;;;;2.9;0.8;;;;;;;17.43;52.0166;958.722;;;;
2019/09/30 12:08:42;;;;;;;3;0.9;;;;;;;17.48;52.71191;958.7168;;;;
2019/09/30 12:11:07;;;;;;;2.7;0.8;;;;;;;17.49;52.71387;958.5988;;;;
2019/09/30 12:13:32;;;;;;;2.7;0.8;;;;;;;17.5;51.71973;958.7073;;;;
2019/09/30 12:15:58;;;;;;;3.1;0.7;;;;;;;17.48;51.66016;958.6936;;;;
2019/09/30 12:18:24;;;;;;;3.5;0.7;;;;;;;17.56;51.43555;958.6781;;;;
2019/09/30 12:20:49;;;;;;;1.9;0.7;;;;;;;17.51;51.10059;958.6234;;;;
2019/09/30 12:23:14;;;;;;;2.7;0.8;;;;;;;17.54;50.55664;958.7244;;;;
2019/09/30 12:25:39;;;;;;;3.3;0.7;;;;;;;17.6;49.7207;958.658;;;;
2019/09/30 12:28:04;;;;;;;2.2;0.8;;;;;;;17.69;49.43945;958.6825;;;;
2019/09/30 12:30:29;;;;;;;3.1;0.8;;;;;;;17.51;49.89844;958.662;;;;
2019/09/30 12:32:54;;;;;;;2.7;0.7;;;;;;;17.45;50.31152;958.7451;;;;
2019/09/30 12:35:19;;;;;;;2.6;0.7;;;;;;;17.3;50.39941;958.6624;;;;
2019/09/30 12:37:44;;;;;;;2.4;0.6;;;;;;;17.28;50.95801;958.6475;;;;
2019/09/30 12:40:09;;;;;;;3.3;0.7;;;;;;;17.42;51.0791;958.7717;;;;
2019/09/30 12:42:34;;;;;;;3.5;0.8;;;;;;;17.52;50.7168;958.7864;;;;
2019/09/30 12:45:00;;;;;;;3.4;1;;;;;;;17.62;50.21387;958.7878;;;;
2019/09/30 12:47:25;;;;;;;2.4;0.7;;;;;;;17.64;49.02246;958.7861;;;;
2019/09/30 12:49:50;;;;;;;2.4;0.6;;;;;;;17.62;49.23145;958.7822;;;;
2019/09/30 12:52:15;;;;;;;1.4;0.6;;;;;;;17.73;48.77539;958.7043;;;;
2019/09/30 12:54:41;;;;;;;1.4;0.5;;;;;;;17.7;48.16406;958.6807;;;;
2019/09/30 12:57:06;;;;;;;3.2;0.7;;;;;;;17.69;47.89551;958.671;;;;
2019/09/30 12:59:31;;;;;;;2.5;0.6;;;;;;;17.9;48.25586;958.7516;;;;
2019/09/30 13:01:56;;;;;;;2.4;0.5;;;;;;;17.91;47.48438;958.6631;;;;
2019/09/30 13:04:21;;;;;;;1.4;0.5;;;;;;;17.94;46.46875;958.6859;;;;
2019/09/30 13:06:47;;;;;;;2;0.6;;;;;;;17.87;46.38086;958.6102;;;;
2019/09/30 13:09:12;;;;;;;1.2;0.5;;;;;;;18.02;46.33691;958.6959;;;;
2019/09/30 13:11:37;;;;;;;4;0.7;;;;;;;17.96;46.87012;958.6314;;;;
2019/09/30 13:14:03;;;;;;;2.5;1.2;;;;;;;18.06;46.0957;958.6863;;;;
2019/09/30 13:16:28;;;;;;;2.4;0.7;;;;;;;18.21;46.66211;958.606;;;;
2019/09/30 13:18:53;;;;;;;1.5;0.8;;;;;;;18.15;47.37012;958.6306;;;;
2019/09/30 13:21:18;;;;;;;2.8;0.7;;;;;;;18.14;47.19336;958.6202;;;;
2019/09/30 13:23:43;;;;;;;2.8;0.8;;;;;;;18.17;46.48145;958.5069;;;;
2019/09/30 13:26:08;;;;;;;2.3;0.6;;;;;;;18.27;46.78613;958.4749;;;;
2019/09/30 13:28:34;;;;;;;1.5;0.5;;;;;;;18.15;46.62012;958.5564;;;;
2019/09/30 13:30:59;;;;;;;2.6;0.6;;;;;;;18.06;47.13867;958.6119;;;;
2019/09/30 13:33:24;;;;;;;3.2;1.8;;;;;;;18.06;46.1084;958.6614;;;;
2019/09/30 13:35:50;;;;;;;2;0.9;;;;;;;18.17;46.08398;958.5299;;;;
2019/09/30 13:38:15;;;;;;;1.7;1.1;;;;;;;18.22;46.13574;958.5151;;;;
2019/09/30 13:40:40;;;;;;;2.7;0.8;;;;;;;18.2;46.87207;958.6433;;;;
2019/09/30 13:43:05;;;;;;;2.3;0.9;;;;;;;18.21;46.12402;958.6843;;;;
2019/09/30 13:45:30;;;;;;;2.5;0.7;;;;;;;18.14;46.37402;958.6713;;;;
2019/09/30 13:47:55;;;;;;;2.3;0.7;;;;;;;18.1;45.77148;958.7154;;;;
2019/09/30 13:50:21;;;;;;;1.8;0.7;;;;;;;18.25;46.08008;958.7873;;;;
2019/09/30 13:52:46;;;;;;;1.8;0.8;;;;;;;18.07;46.47168;958.7391;;;;
2019/09/30 13:55:11;;;;;;;1.7;0.8;;;;;;;18.06;45.94434;958.7175;;;;
2019/09/30 13:57:36;;;;;;;1.8;0.9;;;;;;;18.06;46.38965;958.7439;;;;
2019/09/30 14:00:01;;;;;;;1.4;0.6;;;;;;;18.09;47.08203;958.6661;;;;
2019/09/30 14:02:26;;;;;;;2.5;0.7;;;;;;;18.31;45.79297;958.6435;;;;
2019/09/30 14:04:52;;;;;;;1.8;0.8;;;;;;;18.16;46.17773;958.6076;;;;
2019/09/30 14:07:17;;;;;;;2.5;0.9;;;;;;;18.21;46.46387;958.6777;;;;
2019/09/30 14:09:42;;;;;;;1.8;0.7;;;;;;;18.16;46.46973;958.6209;;;;
2019/09/30 14:12:07;;;;;;;1.9;0.8;;;;;;;18.12;47.03906;958.5865;;;;
2019/09/30 14:14:33;;;;;;;3;0.7;;;;;;;18.13;47.29785;958.5865;;;;
2019/09/30 14:16:58;;;;;;;1.3;0.6;;;;;;;18.1;47.65723;958.6725;;;;
2019/09/30 14:19:23;;;;;;;2.6;0.7;;;;;;;18.21;47.79883;958.7751;;;;
2019/09/30 14:21:49;;;;;;;1.9;0.6;;;;;;;18.29;47.91309;958.7966;;;;
2019/09/30 14:24:14;;;;;;;1.6;0.6;;;;;;;18.28;48.40234;958.7308;;;;
2019/09/30 14:26:39;;;;;;;3.4;0.6;;;;;;;18.29;48.28711;958.6852;;;;
2019/09/30 14:29:05;;;;;;;2.7;0.6;;;;;;;18.13;48.62109;958.848;;;;
2019/09/30 14:31:30;;;;;;;2.9;0.7;;;;;;;18.1;48.4541;958.817;;;;
2019/09/30 14:33:55;;;;;;;2.2;0.7;;;;;;;17.91;48.60938;958.8353;;;;
2019/09/30 14:36:20;;;;;;;2.8;0.8;;;;;;;17.98;47.83203;958.8611;;;;
2019/09/30 14:38:45;;;;;;;2.9;0.8;;;;;;;17.94;48.01367;958.8155;;;;
2019/09/30 14:41:10;;;;;;;2.3;1.3;;;;;;;17.93;48.21289;958.8049;;;;
2019/09/30 14:43:36;;;;;;;2.9;1;;;;;;;18.01;48.47949;958.8047;;;;
2019/09/30 14:46:02;;;;;;;3.3;1;;;;;;;17.86;49.04688;958.845;;;;
2019/09/30 14:48:26;;;;;;;4;0.7;;;;;;;17.82;48.75;958.825;;;;
2019/09/30 14:50:52;;;;;;;2.6;0.8;;;;;;;17.82;49.24219;958.8225;;;;
2019/09/30 14:53:17;;;;;;;1.9;0.8;;;;;;;17.8;49.25195;958.7953;;;;
2019/09/30 14:55:42;;;;;;;2.3;0.8;;;;;;;17.84;49.35059;958.7761;;;;
2019/09/30 14:58:08;;;;;;;2.8;0.8;;;;;;;17.77;49.99805;958.8115;;;;
2019/09/30 15:00:33;;;;;;;2.3;0.8;;;;;;;17.8;49.07715;958.8665;;;;
2019/09/30 15:02:58;;;;;;;3.6;0.8;;;;;;;17.7;49.45117;958.7492;;;;
2019/09/30 15:07:26;;;;;;;3;0.7;;;;;;;17.67;49.31934;958.8639;;;;
2019/09/30 15:09:51;;;;;;;1.9;0.8;;;;;;;17.76;49.66895;958.7823;;;;
2019/09/30 15:12:16;;;;;;;1.5;0.7;;;;;;;17.77;48.81543;958.8236;;;;
2019/09/30 15:14:42;;;;;;;2.4;0.7;;;;;;;17.82;48.69238;958.801;;;;
2019/09/30 15:17:07;;;;;;;3.1;0.9;;;;;;;17.73;49.10352;958.8141;;;;
2019/09/30 15:19:32;;;;;;;3.5;0.8;;;;;;;17.77;49.17773;958.7789;;;;
2019/09/30 15:21:57;;;;;;;3.1;0.8;;;;;;;17.69;49.94141;958.7353;;;;
2019/09/30 15:24:22;;;;;;;2.8;0.7;;;;;;;17.61;50.17773;958.7936;;;;
2019/09/30 15:26:47;;;;;;;3.5;0.8;;;;;;;17.72;50.07422;958.7935;;;;
2019/09/30 15:29:12;;;;;;;3.6;0.8;;;;;;;17.86;50.20605;958.753;;;;
2019/09/30 15:31:38;;;;;;;2.3;0.7;;;;;;;17.93;49.76953;958.7759;;;;
2019/09/30 15:34:02;;;;;;;2.7;0.8;;;;;;;17.89;49.51953;958.7402;;;;
2019/09/30 15:36:27;;;;;;;3;1;;;;;;;17.76;50.24121;958.7642;;;;
2019/09/30 15:38:52;;;;;;;3.3;1.1;;;;;;;17.63;50.08594;958.8258;;;;
2019/09/30 15:41:18;;;;;;;3.4;1.1;;;;;;;17.61;50.05957;958.7287;;;;
2019/09/30 15:43:43;;;;;;;3.4;0.8;;;;;;;17.56;50.42871;958.7838;;;;